Track лаптев владимир

Time Latitude Longitude Accuracy (66% radius in meters) Altitude (meters) Speed (km/hour) Bearing (degrees) Battery (%) GPS flag
06:27:33 51.771488 107.084067 2.4000000953674 699.5 1.9868277311325 30.430000305176 78 1 delete
06:27:30 51.771388 107.084035 2.5 698 1.8385877609253 5.4899997711182 78 1 delete
06:27:26 51.771288 107.084042 2.5 698.7 1.8977807760239 339.67999267578 78 1 delete
06:27:22 51.771197 107.084067 2.4000000953674 699.4 1.7057894468307 350.67999267578 78 1 delete
06:27:18 51.771107 107.084117 2.4000000953674 699.7 1.6100511550903 324.76998901367 78 1 delete
06:27:14 51.771017 107.084170 2.5 699.9 1.3665875196457 316.67001342773 78 1 delete
06:27:09 51.770925 107.084230 2.5 700.3 1.042312502861 316.67001342773 78 1 delete
06:27:04 51.770852 107.084320 2.5 700.3 1.9029281139374 309.79000854492 78 1 delete
06:26:59 51.770773 107.084425 2.4000000953674 699.9 1.9646947383881 316.39999389648 78 1 delete
06:26:54 51.770680 107.084508 2.4000000953674 699.8 1.8257197141647 340.2200012207 78 1 delete
06:26:48 51.770600 107.084622 2.4000000953674 699.9 1.8061603307724 306.51998901367 78 1 delete
06:26:43 51.770553 107.084777 2.2999999523163 700.7 2.6055238246918 299.26998901367 78 1 delete
06:26:39 51.770522 107.084920 2.2999999523163 700.6 1.9518266916275 286 78 1 delete
06:26:36 51.770525 107.085085 2.4000000953674 701.1 1.3526899814606 276.23999023438 78 1 delete
06:26:22 51.770537 107.085352 2.4000000953674 702.5 1.4422516822815 239.86000061035 78 1 delete
06:26:11 51.770543 107.085502 2.2999999523163 702.3 0 271.66000366211 78 1 delete
06:26:05 51.770482 107.085625 2.2999999523163 702 2.610671043396 287.76998901367 78 1 delete
06:26:00 51.770390 107.085660 2.4000000953674 702.7 2.7686908245087 8.2600002288818 78 1 delete
06:25:57 51.770297 107.085605 2.4000000953674 703 2.5082414150238 6.9499998092651 78 1 delete
06:25:54 51.770163 107.085553 2.5 703.7 2.8011183738708 3.5499999523163 78 1 delete
06:25:50 51.770033 107.085512 2.5 704.6 2.7218511104584 349.7200012207 78 1 delete
06:25:47 51.769942 107.085533 2.5 705.2 3.1166429519653 329.57000732422 78 1 delete
06:25:44 51.769850 107.085567 2.7000000476837 705.7 3.2643682956696 333.08999633789 78 1 delete
06:25:41 51.769742 107.085623 2.7000000476837 706.1 5.124059677124 2.4400000572205 78 1 delete
06:25:39 51.769627 107.085630 2.7999999523163 706.8 6.38667345047 11.380000114441 78 1 delete
06:25:37 51.769508 107.085578 2.7999999523163 707.1 7.6559782028198 21.370000839233 78 1 delete
06:25:35 51.769378 107.085465 2.7999999523163 707.7 7.4500894546509 29.329999923706 78 1 delete
06:25:33 51.769270 107.085330 2.7000000476837 708.3 7.9318695068359 25.030000686646 78 1 delete
06:25:31 51.769148 107.085222 2.5999999046326 708.4 6.4412341117859 24.239999771118 78 1 delete
06:25:29 51.769048 107.085145 2.5 708.5 6.2682871818542 16.389999389648 78 1 delete
06:25:27 51.768955 107.085087 2.4000000953674 708.6 4.8455948829651 8.6599998474121 78 1 delete
06:25:24 51.768835 107.085023 2.4000000953674 708.4 3.0528175830841 11.300000190735 78 1 delete
06:25:20 51.768723 107.084983 2.2999999523163 708.1 2.0650656223297 358.39999389648 78 1 delete
06:25:14 51.768605 107.084958 2.2999999523163 707.6 0 341 78 1 delete
06:25:06 51.768513 107.084922 2.2000000476837 706.3 1.7552027702332 24.340000152588 78 1 delete
06:25:00 51.768428 107.084838 2.2000000476837 705.5 1.2883497476578 26.540000915527 78 1 delete
06:24:54 51.768343 107.084787 2.0999999046326 704.7 0.96664834022522 20.129999160767 78 1 delete
06:24:42 51.768225 107.084770 1.5 703.2 0.80142247676849 12.550000190735 78 1 delete
06:24:20 51.768118 107.084922 2.2999999523163 700.4 1.4803410768509 266.89999389648 78 1 delete
06:24:15 51.768067 107.085082 2.4000000953674 701.4 2.2905139923096 275.63000488281 78 1 delete
06:24:11 51.768018 107.085220 2.4000000953674 702 2.0238878726959 272.11999511719 78 1 delete
06:24:07 51.768007 107.085365 2.4000000953674 702 0 273.89001464844 78 1 delete
06:24:01 51.767947 107.085497 2.4000000953674 702 1.3918088674545 288.83999633789 78 1 delete
06:23:55 51.767910 107.085652 2.4000000953674 701.6 1.2409952878952 271.14001464844 78 1 delete
06:23:50 51.767908 107.085798 2.2999999523163 700.7 1.3315863609314 271.7799987793 78 1 delete
06:23:45 51.767895 107.085953 2.2999999523163 698.8 0 249.13000488281 78 1 delete
06:23:39 51.767903 107.086100 2.2000000476837 698.5 0 275.13000488281 78 1 delete
06:23:32 51.767865 107.086235 2.2999999523163 695.1 1.5266661643982 273.45999145508 78 1 delete
06:23:27 51.767860 107.086402 2.4000000953674 692.9 2.0460207462311 279.95001220703 78 1 delete
06:23:21 51.767807 107.086528 2.4000000953674 692.8 1.9482235908508 273.33999633789 78 1 delete